Darstellungsparameter: Aktuell verwendete Einstellungen:
Skalierung der Graphiken ... ?
xyx+y,   Skalierungsfaktor:      Skalierung: Modus: x, Faktor: 1
Darstellungszeitraum ... ?
Vom - - bis: - -   Zeitraum: 01.12.2008 - 01.12.2008
Min/Max/Avg-Anzeige ... ?
Zeige MMA aktuell
Zeige MMA Monat
Zeige MMA alles
Zeige --A aktuell
Zeige --A Monat
Zeige --A alles
Keine MMA-Anzeige
MMA:
Average (ber die Originaldaten)
MMA-Basis: 01.12.2008 - 01.12.2008
Quicknavigation für Darstellung... ?
Tage:      1T, 2T, 3T, 5T -1T -2T -3T -5T +1T +2T +3T +5T
Wochen: 1W, 2W, 3W -1W -2W -3W +1W +2W +3W
Monate: 1M, 3M, 6M -1M -3M -6M +1M +3M +6M
Jahre:    1J, 3J, 5J, 10J -1J -3J -5J -10J +1J +3J +5J +10J
Nutze für die Darstellung ... ?
Originaldaten oder Mittelwerte auf ...
Stundenbasis Tagesbasis Wochenbasis
Monatsbasis Jahresbasis      Datenbasis: Original-Daten
Darstellen als:
Statistik (Auto) Statistik J:M      Darstellung:
Zur Graphik,    zurück zur Übersicht aller Sensoren.
 
Tabellarische Datenbersicht: ?
 
Sensor: Nr:Datum:Temp:Abs-Feuchte:Windchill:Wind:
Aussen-T/F 1 01-12-2008 00:08:03 0.2 C 4.67 g/m*3 0.2 C 0 km/h
2 01-12-2008 00:20:03 0.2 C 4.67 g/m*3 0.2 C 0 km/h
3 01-12-2008 00:32:03 0.1 C 4.63 g/m*3 0.1 C 0 km/h
4 01-12-2008 00:44:03 -0.2 C 4.54 g/m*3 -0.2 C 0 km/h
5 01-12-2008 00:56:03 -0.4 C 4.48 g/m*3 -0.4 C 0 km/h
6 01-12-2008 01:08:03 -0.5 C 4.45 g/m*3 -0.5 C 0 km/h
7 01-12-2008 01:20:03 -0.5 C 4.45 g/m*3 -0.5 C 0 km/h
8 01-12-2008 01:32:03 -0.6 C 4.42 g/m*3 -0.6 C 0 km/h
9 01-12-2008 01:44:03 -0.9 C 4.32 g/m*3 -0.9 C 0 km/h
10 01-12-2008 01:56:03 -1 C 4.29 g/m*3 -1 C 0 km/h
11 01-12-2008 02:08:03 -1.1 C 4.26 g/m*3 -1.1 C 0 km/h
12 01-12-2008 02:20:03 -1.2 C 4.24 g/m*3 -1.2 C 0 km/h
13 01-12-2008 02:32:03 -1.2 C 4.24 g/m*3 -1.2 C 0 km/h
14 01-12-2008 02:44:03 -1.2 C 4.24 g/m*3 -1.2 C 0 km/h
15 01-12-2008 02:56:03 -1.2 C 4.24 g/m*3 -1.2 C 0 km/h
16 01-12-2008 03:08:03 -1.4 C 4.18 g/m*3 -1.4 C 0 km/h
17 01-12-2008 03:20:03 -1.5 C 4.15 g/m*3 -1.5 C 0 km/h
18 01-12-2008 03:32:04 -1.4 C 4.18 g/m*3 -1.4 C 0 km/h
19 01-12-2008 03:44:04 -1.4 C 4.18 g/m*3 -1.4 C 0 km/h
20 01-12-2008 03:56:04 -1.4 C 4.18 g/m*3 -1.4 C 0 km/h
21 01-12-2008 04:08:04 -1.4 C 4.18 g/m*3 -1.4 C 0 km/h
22 01-12-2008 04:20:04 -1.5 C 4.15 g/m*3 -1.5 C 0 km/h
23 01-12-2008 04:32:04 -1.4 C 4.18 g/m*3 -1.4 C 0 km/h
24 01-12-2008 04:44:04 -1.4 C 4.18 g/m*3 -1.4 C 0 km/h
25 01-12-2008 04:56:04 -1.4 C 4.18 g/m*3 -1.4 C 0 km/h
Sensor: Nr:Datum:Temp:Abs-Feuchte:Windchill:Wind:
Aussen-T/F 26 01-12-2008 05:08:04 -1.5 C 4.15 g/m*3 -1.5 C 0 km/h
27 01-12-2008 05:20:04 -1.6 C 4.12 g/m*3 -1.6 C 0 km/h
28 01-12-2008 05:32:04 -1.6 C 4.12 g/m*3 -1.6 C 0 km/h
29 01-12-2008 05:44:04 -1.7 C 4.09 g/m*3 -1.7 C 0 km/h
30 01-12-2008 05:56:04 -1.7 C 4.09 g/m*3 -1.7 C 0 km/h
31 01-12-2008 06:08:04 -1.8 C 4.06 g/m*3 -1.8 C 0 km/h
32 01-12-2008 06:20:04 -1.9 C 4.03 g/m*3 -1.9 C 0 km/h
33 01-12-2008 06:32:04 -2 C 4 g/m*3 -2 C 0 km/h
34 01-12-2008 06:44:04 -2 C 4 g/m*3 -2 C 0 km/h
35 01-12-2008 06:56:04 -2 C 4 g/m*3 -2 C 0 km/h
36 01-12-2008 07:08:02 -2 C 4 g/m*3 -2 C 0 km/h
37 01-12-2008 07:20:02 -2.1 C 3.98 g/m*3 -2.1 C 0 km/h
38 01-12-2008 07:32:02 -2.1 C 3.98 g/m*3 -2.1 C 0 km/h
39 01-12-2008 07:44:02 -2.1 C 3.98 g/m*3 -2.1 C 0 km/h
40 01-12-2008 07:56:02 -2 C 4 g/m*3 -2 C 0 km/h
41 01-12-2008 08:08:03 -2.1 C 3.98 g/m*3 -2.1 C 0 km/h
42 01-12-2008 08:20:02 -2.1 C 3.98 g/m*3 -2.1 C 0 km/h
43 01-12-2008 08:32:02 -2.1 C 3.98 g/m*3 -2.1 C 0 km/h
44 01-12-2008 08:44:02 -2 C 4 g/m*3 -2 C 0 km/h
45 01-12-2008 08:56:02 -2 C 4 g/m*3 -2 C 0 km/h
46 01-12-2008 09:08:02 -1.9 C 4.03 g/m*3 -1.9 C 0 km/h
47 01-12-2008 09:20:02 -1.7 C 4.09 g/m*3 -1.7 C 0 km/h
48 01-12-2008 09:32:02 -1.6 C 4.12 g/m*3 -1.6 C 0 km/h
49 01-12-2008 09:44:02 -1.3 C 4.21 g/m*3 -1.3 C 0 km/h
50 01-12-2008 09:56:02 -1.2 C 4.24 g/m*3 -1.2 C 0 km/h
Sensor: Nr:Datum:Temp:Abs-Feuchte:Windchill:Wind:
Aussen-T/F 51 01-12-2008 10:08:01 -1.1 C 4.26 g/m*3 -1.1 C 0 km/h
52 01-12-2008 10:20:02 -0.9 C 4.32 g/m*3 -0.9 C 0 km/h
53 01-12-2008 10:32:01 -0.7 C 4.39 g/m*3 -0.7 C 0 km/h
54 01-12-2008 10:44:01 -0.7 C 4.39 g/m*3 -0.7 C 0 km/h
55 01-12-2008 10:56:03 -0.6 C 4.42 g/m*3 -0.6 C 0 km/h
56 01-12-2008 11:08:02 -0.6 C 4.42 g/m*3 -0.6 C 0 km/h
57 01-12-2008 11:20:02 -0.4 C 4.48 g/m*3 -0.4 C 0 km/h
58 01-12-2008 11:32:02 -0.1 C 4.57 g/m*3 -0.1 C 0 km/h
59 01-12-2008 11:44:02 0.1 C 4.63 g/m*3 0.1 C 0 km/h
60 01-12-2008 11:56:02 0 C 4.6 g/m*3 0 C 0 km/h
61 01-12-2008 12:08:03 0 C 4.55 g/m*3 0 C 0 km/h
62 01-12-2008 12:20:02 0.4 C 4.73 g/m*3 0.4 C 0 km/h
63 01-12-2008 12:32:02 0.4 C 4.68 g/m*3 0.4 C 0 km/h
64 01-12-2008 12:44:02 0.6 C 4.7 g/m*3 0.6 C 0 km/h
65 01-12-2008 12:56:02 0.7 C 4.73 g/m*3 0.7 C 0 km/h
66 01-12-2008 13:08:01 0.9 C 4.74 g/m*3 0.9 C 0 km/h
67 01-12-2008 13:20:02 1.2 C 4.79 g/m*3 1.2 C 0 km/h
68 01-12-2008 13:32:02 1.4 C 4.8 g/m*3 1.4 C 0 km/h
69 01-12-2008 13:44:02 1.5 C 4.78 g/m*3 1.5 C 0 km/h
70 01-12-2008 13:56:02 1.6 C 4.81 g/m*3 1.6 C 0 km/h
71 01-12-2008 14:08:03 1.3 C 4.72 g/m*3 1.3 C 0 km/h
72 01-12-2008 14:20:02 1.3 C 4.72 g/m*3 1.3 C 0 km/h
73 01-12-2008 14:32:02 1.3 C 4.72 g/m*3 1.3 C 0 km/h
74 01-12-2008 14:44:02 1.3 C 4.72 g/m*3 1.3 C 0 km/h
75 01-12-2008 14:56:02 1.4 C 4.75 g/m*3 1.4 C 0 km/h
Sensor: Nr:Datum:Temp:Abs-Feuchte:Windchill:Wind:
Aussen-T/F 76 01-12-2008 15:08:02 1.6 C 4.81 g/m*3 1.6 C 0 km/h
77 01-12-2008 15:20:02 1.6 C 4.81 g/m*3 1.6 C 0 km/h
78 01-12-2008 15:32:01 1.8 C 4.82 g/m*3 1.8 C 0 km/h
79 01-12-2008 15:44:01 1.8 C 4.77 g/m*3 1.8 C 0 km/h
80 01-12-2008 15:56:01 1.8 C 4.77 g/m*3 1.8 C 0 km/h
81 01-12-2008 16:08:02 2 C 4.83 g/m*3 2 C 0 km/h
82 01-12-2008 16:20:01 2.1 C 4.81 g/m*3 2.1 C 0 km/h
83 01-12-2008 16:32:02 2.1 C 4.81 g/m*3 2.1 C 0 km/h
84 01-12-2008 16:44:02 2.1 C 4.81 g/m*3 2.1 C 0 km/h
85 01-12-2008 16:56:03 2 C 4.78 g/m*3 2 C 0 km/h
86 01-12-2008 17:08:02 2 C 4.78 g/m*3 2 C 0 km/h
87 01-12-2008 17:20:02 1.9 C 4.8 g/m*3 1.9 C 0 km/h
88 01-12-2008 17:32:02 1.7 C 4.79 g/m*3 1.7 C 0 km/h
89 01-12-2008 17:44:02 1.7 C 4.85 g/m*3 1.7 C 0 km/h
90 01-12-2008 17:56:03 1.7 C 4.85 g/m*3 1.7 C 0 km/h
91 01-12-2008 18:08:02 1.7 C 4.85 g/m*3 1.7 C 0 km/h
92 01-12-2008 18:20:02 1.6 C 4.81 g/m*3 1.6 C 0 km/h
93 01-12-2008 18:32:03 1.6 C 4.87 g/m*3 1.6 C 0 km/h
94 01-12-2008 18:44:03 1.7 C 4.9 g/m*3 1.7 C 0 km/h
95 01-12-2008 18:56:02 1.7 C 4.9 g/m*3 1.7 C 0 km/h
96 01-12-2008 19:08:02 1.7 C 4.9 g/m*3 1.7 C 0 km/h
97 01-12-2008 19:20:02 1.8 C 4.93 g/m*3 1.8 C 0 km/h
98 01-12-2008 19:32:02 2 C 4.95 g/m*3 2 C 0 km/h
99 01-12-2008 19:44:02 2 C 4.95 g/m*3 2 C 0 km/h
100 01-12-2008 19:56:01 2.1 C 4.98 g/m*3 2.1 C 0 km/h
Sensor: Nr:Datum:Temp:Abs-Feuchte:Windchill:Wind:
Aussen-T/F 101 01-12-2008 20:08:01 2.2 C 4.96 g/m*3 2.2 C 0 km/h
102 01-12-2008 20:20:01 2.3 C 4.99 g/m*3 2.3 C 0 km/h
103 01-12-2008 20:32:01 2.4 C 4.97 g/m*3 2.4 C 0 km/h
104 01-12-2008 20:44:01 2.3 C 4.93 g/m*3 2.3 C 0 km/h
105 01-12-2008 20:56:02 2.3 C 4.93 g/m*3 2.3 C 0 km/h
106 01-12-2008 21:08:02 2.3 C 4.93 g/m*3 2.3 C 0 km/h
107 01-12-2008 21:20:02 2.4 C 4.97 g/m*3 2.4 C 0 km/h
108 01-12-2008 21:32:02 2.4 C 4.97 g/m*3 2.4 C 0 km/h
109 01-12-2008 21:44:02 2.4 C 4.97 g/m*3 2.4 C 0 km/h
110 01-12-2008 21:56:02 2.5 C 5 g/m*3 2.5 C 0 km/h
111 01-12-2008 22:08:01 2.6 C 5.03 g/m*3 2.6 C 0 km/h
112 01-12-2008 22:20:01 2.6 C 5.03 g/m*3 2.6 C 0 km/h
113 01-12-2008 22:33:01 2.6 C 5.03 g/m*3 2.6 C 0 km/h
114 01-12-2008 22:45:02 2.7 C 5.07 g/m*3 2.7 C 0 km/h
115 01-12-2008 22:57:02 2.7 C 5.07 g/m*3 2.7 C 0 km/h
116 01-12-2008 23:09:02 2.7 C 5.07 g/m*3 2.7 C 0 km/h
117 01-12-2008 23:21:02 2.7 C 5.13 g/m*3 2.7 C 0 km/h
118 01-12-2008 23:33:02 2.7 C 5.13 g/m*3 2.7 C 0 km/h
119 01-12-2008 23:45:02 2.7 C 5.19 g/m*3 2.7 C 0 km/h
120 01-12-2008 23:57:02 2.7 C 5.19 g/m*3 2.7 C 0 km/h

Legende:
   Min
   Max


Maximal/Minimal-Werte vom 01.12.2008 - 01.12.2008

Sensor Min Max Avg
Temp
(Aussen-T/F)
-2.1 °C
01-12-2008  07:20:02
2.7 °C
01-12-2008  22:45:02
0.3 °C
Abs-Feuchte
(Aussen-T/F)
3.98 g/m*3
01-12-2008  07:20:02
5.19 g/m*3
01-12-2008  23:45:02
4.51 g/m*3
Windchill
(Aussen-T/F)
-2.1 C
01-12-2008  07:20:02
2.7 C
01-12-2008  22:45:02
0.3 C

Die Daten stammen von einer Davis Vantage Pro 2 Wetter-Station und werden unter Linux mit der Software wview2wettercgi und aufbereitet. Alle Angaben erfolgen ohne Gewähr für ihre Vollständigkeit oder Richtigkeit.
Kontakt: Rainer Krienke krienke@uni-koblenz.de . Meine Webseiten an der Uni Koblenz oder privat.
Version: $Revision: 0.78 $